Main page
METAR-TAF:

METAR-TAF

Airports :

Jomo Kenyatta International Airport

Nairobi, Kenya

latitude: 01-19S, longitude: 036-55E, elevation: 1624 m

Current weather observation

The report was made 39 minutes ago, at 03:00 UTC
Wind 6 kt from the South
Temperature 16°C
Humidity 94%
Pressure 1023 hPa
Visibility 10 km or more
Broken clouds at a height of 1800 ft

METAR: HKJK 270300Z 18006KT 9999 BKN018 16/15 Q1023

Time: 06:39 (03:39 UTC)

Forecast

The report was made 4 hours and 39 minutes ago, at 23:00 UTC
Forecast valid from 27 at 00 UTC to 28 at 06 UTC
Wind 5 kt from the South
Visibility 10 km or more
Broken clouds at a height of 2000 ft
Becoming
from 27 at 03 UTC to 27 at 06 UTC
Wind 5 kt from the Southeast
Becoming
from 28 at 00 UTC to 28 at 03 UTC
Wind 5 kt from the South/Southwest
Scattered clouds at a height of 2000 ft

TAF: HKJK 262300Z 2700/2806 18005KT 9999 BKN020 BECMG 2703/2706 14005KT BECMG 2800/2803 21005KT SCT020

Weather observations and forecasts of more than 4000 airports (METAR and TAF reports).

The available stations are represented by yellow and red dots on the map.

Hover mouse over dot to see the name of the station.

Then click to see weather observations and forecasts.

To change the map : click on the green buttons with a black cross to zoom in, on the green button with a dash to zoom out, or on the green arrows for adjacent maps.


METAR-TAF: